sensor_id;sensor_type;location;lat;lon;timestamp;temperature;humidity
54796;DHT22;40693;43.884;20.340;2022-12-31T00:00:28;179.80;2252.80
54796;DHT22;40693;43.884;20.340;2022-12-31T00:02:54;179.80;2252.80
54796;DHT22;40693;43.884;20.340;2022-12-31T00:05:20;179.70;2252.80
54796;DHT22;40693;43.884;20.340;2022-12-31T00:07:47;179.70;2252.80
54796;DHT22;40693;43.884;20.340;2022-12-31T00:10:12;179.70;2252.80
54796;DHT22;40693;43.884;20.340;2022-12-31T00:12:38;179.70;2252.80
54796;DHT22;40693;43.884;20.340;2022-12-31T00:15:04;179.70;2252.80
54796;DHT22;40693;43.884;20.340;2022-12-31T00:17:30;179.70;2252.80
54796;DHT22;40693;43.884;20.340;2022-12-31T00:19:55;179.70;2252.80
54796;DHT22;40693;43.884;20.340;2022-12-31T00:22:21;179.70;2252.80
54796;DHT22;40693;43.884;20.340;2022-12-31T00:24:47;179.70;2252.80
54796;DHT22;40693;43.884;20.340;2022-12-31T00:27:12;179.60;2252.80
54796;DHT22;40693;43.884;20.340;2022-12-31T00:29:38;179.70;2252.80
54796;DHT22;40693;43.884;20.340;2022-12-31T00:32:03;179.70;2252.80
54796;DHT22;40693;43.884;20.340;2022-12-31T00:34:29;179.60;2252.80
54796;DHT22;40693;43.884;20.340;2022-12-31T00:36:55;179.70;2252.80
54796;DHT22;40693;43.884;20.340;2022-12-31T00:39:20;179.90;2252.80
54796;DHT22;40693;43.884;20.340;2022-12-31T00:41:46;179.60;2252.80
54796;DHT22;40693;43.884;20.340;2022-12-31T00:44:12;179.60;2252.80
54796;DHT22;40693;43.884;20.340;2022-12-31T00:46:38;179.60;2252.80
54796;DHT22;40693;43.884;20.340;2022-12-31T00:49:04;179.60;2252.80
54796;DHT22;40693;43.884;20.340;2022-12-31T00:51:29;179.50;2252.80
54796;DHT22;40693;43.884;20.340;2022-12-31T00:53:55;179.50;2252.80
54796;DHT22;40693;43.884;20.340;2022-12-31T00:56:22;179.50;2252.80
54796;DHT22;40693;43.884;20.340;2022-12-31T00:58:48;179.50;2252.80
54796;DHT22;40693;43.884;20.340;2022-12-31T01:01:21;179.50;2252.80
54796;DHT22;40693;43.884;20.340;2022-12-31T01:03:48;179.50;2252.80
54796;DHT22;40693;43.884;20.340;2022-12-31T01:06:14;179.40;2252.80
54796;DHT22;40693;43.884;20.340;2022-12-31T01:08:40;179.40;2252.80
54796;DHT22;40693;43.884;20.340;2022-12-31T01:11:05;179.40;2252.80
54796;DHT22;40693;43.884;20.340;2022-12-31T01:16:19;179.30;2252.80
54796;DHT22;40693;43.884;20.340;2022-12-31T01:18:45;179.30;2252.80
54796;DHT22;40693;43.884;20.340;2022-12-31T01:21:11;179.30;2252.80
54796;DHT22;40693;43.884;20.340;2022-12-31T01:23:37;179.30;2252.80
54796;DHT22;40693;43.884;20.340;2022-12-31T01:26:03;179.30;2252.80
54796;DHT22;40693;43.884;20.340;2022-12-31T01:28:29;179.20;2252.80
54796;DHT22;40693;43.884;20.340;2022-12-31T01:30:55;179.20;2252.80
54796;DHT22;40693;43.884;20.340;2022-12-31T01:33:21;179.20;2252.80
54796;DHT22;40693;43.884;20.340;2022-12-31T01:35:47;179.20;2252.80
54796;DHT22;40693;43.884;20.340;2022-12-31T01:38:12;179.20;2252.80
54796;DHT22;40693;43.884;20.340;2022-12-31T01:40:38;154.50;2252.80
54796;DHT22;40693;43.884;20.340;2022-12-31T01:43:39;154.50;2252.80
54796;DHT22;40693;43.884;20.340;2022-12-31T01:45:51;154.50;2252.80
54796;DHT22;40693;43.884;20.340;2022-12-31T01:48:19;154.40;2252.80
54796;DHT22;40693;43.884;20.340;2022-12-31T01:50:45;154.40;2252.80
54796;DHT22;40693;43.884;20.340;2022-12-31T01:53:11;154.40;2252.80
54796;DHT22;40693;43.884;20.340;2022-12-31T01:55:40;154.30;2252.80
54796;DHT22;40693;43.884;20.340;2022-12-31T01:58:10;154.20;2252.80
54796;DHT22;40693;43.884;20.340;2022-12-31T02:00:36;154.30;2252.80
54796;DHT22;40693;43.884;20.340;2022-12-31T02:03:02;154.20;2252.80
54796;DHT22;40693;43.884;20.340;2022-12-31T02:05:32;154.10;2252.80
54796;DHT22;40693;43.884;20.340;2022-12-31T02:07:59;154.00;2252.80
54796;DHT22;40693;43.884;20.340;2022-12-31T02:10:27;154.00;2252.80
54796;DHT22;40693;43.884;20.340;2022-12-31T02:12:52;153.70;2252.80
54796;DHT22;40693;43.884;20.340;2022-12-31T02:15:19;154.00;2252.80
54796;DHT22;40693;43.884;20.340;2022-12-31T02:30:37;153.90;2252.80
54796;DHT22;40693;43.884;20.340;2022-12-31T02:38:02;153.60;2252.80
54796;DHT22;40693;43.884;20.340;2022-12-31T02:40:29;128.90;2252.80
54796;DHT22;40693;43.884;20.340;2022-12-31T02:42:57;128.90;2252.80
54796;DHT22;40693;43.884;20.340;2022-12-31T02:45:26;128.80;2252.80
54796;DHT22;40693;43.884;20.340;2022-12-31T02:48:04;128.80;2252.80
54796;DHT22;40693;43.884;20.340;2022-12-31T02:50:46;128.90;2252.80
54796;DHT22;40693;43.884;20.340;2022-12-31T02:56:01;128.90;2252.80
54796;DHT22;40693;43.884;20.340;2022-12-31T02:58:31;128.90;2252.80
54796;DHT22;40693;43.884;20.340;2022-12-31T03:01:16;128.90;2252.80
54796;DHT22;40693;43.884;20.340;2022-12-31T03:04:01;128.90;2252.80
54796;DHT22;40693;43.884;20.340;2022-12-31T03:06:47;154.20;2252.80
54796;DHT22;40693;43.884;20.340;2022-12-31T03:09:13;153.60;2252.80
54796;DHT22;40693;43.884;20.340;2022-12-31T03:11:39;128.90;2252.80
54796;DHT22;40693;43.884;20.340;2022-12-31T03:14:23;128.90;2252.80
54796;DHT22;40693;43.884;20.340;2022-12-31T03:16:48;153.60;2252.80
54796;DHT22;40693;43.884;20.340;2022-12-31T03:19:14;153.60;2252.80
54796;DHT22;40693;43.884;20.340;2022-12-31T03:21:58;153.60;2252.80
54796;DHT22;40693;43.884;20.340;2022-12-31T03:24:42;153.60;2252.80
54796;DHT22;40693;43.884;20.340;2022-12-31T03:27:26;128.90;2252.80
54796;DHT22;40693;43.884;20.340;2022-12-31T03:29:52;128.90;2252.80
54796;DHT22;40693;43.884;20.340;2022-12-31T03:32:17;128.80;2252.80
54796;DHT22;40693;43.884;20.340;2022-12-31T03:34:43;128.90;2252.80
54796;DHT22;40693;43.884;20.340;2022-12-31T03:37:09;128.80;2252.80
54796;DHT22;40693;43.884;20.340;2022-12-31T03:39:34;128.90;2252.80
54796;DHT22;40693;43.884;20.340;2022-12-31T03:42:00;128.90;2252.80
54796;DHT22;40693;43.884;20.340;2022-12-31T03:44:25;128.80;2252.80
54796;DHT22;40693;43.884;20.340;2022-12-31T03:46:51;128.80;2252.80
54796;DHT22;40693;43.884;20.340;2022-12-31T03:49:16;128.80;2252.80
54796;DHT22;40693;43.884;20.340;2022-12-31T03:51:42;128.80;2252.80
54796;DHT22;40693;43.884;20.340;2022-12-31T03:54:08;128.80;2252.80
54796;DHT22;40693;43.884;20.340;2022-12-31T03:56:33;128.80;2252.80
54796;DHT22;40693;43.884;20.340;2022-12-31T03:58:59;128.80;2252.80
54796;DHT22;40693;43.884;20.340;2022-12-31T04:01:25;128.80;2252.80
54796;DHT22;40693;43.884;20.340;2022-12-31T04:03:50;128.80;2252.80
54796;DHT22;40693;43.884;20.340;2022-12-31T04:06:16;128.80;2252.80
54796;DHT22;40693;43.884;20.340;2022-12-31T04:08:41;128.80;2252.80
54796;DHT22;40693;43.884;20.340;2022-12-31T04:11:07;128.80;2252.80
54796;DHT22;40693;43.884;20.340;2022-12-31T04:13:33;128.80;2252.80
54796;DHT22;40693;43.884;20.340;2022-12-31T04:15:58;128.80;2252.80
54796;DHT22;40693;43.884;20.340;2022-12-31T04:18:24;128.80;2252.80
54796;DHT22;40693;43.884;20.340;2022-12-31T04:20:49;128.80;2252.80
54796;DHT22;40693;43.884;20.340;2022-12-31T04:23:15;128.80;2252.80
54796;DHT22;40693;43.884;20.340;2022-12-31T04:25:41;128.80;2252.80
54796;DHT22;40693;43.884;20.340;2022-12-31T04:28:06;128.70;2252.80
54796;DHT22;40693;43.884;20.340;2022-12-31T04:30:32;128.70;2252.80
54796;DHT22;40693;43.884;20.340;2022-12-31T04:32:58;128.70;2252.80
54796;DHT22;40693;43.884;20.340;2022-12-31T04:35:23;128.70;2252.80
54796;DHT22;40693;43.884;20.340;2022-12-31T04:37:49;128.70;2252.80
54796;DHT22;40693;43.884;20.340;2022-12-31T04:40:14;128.70;2252.80
54796;DHT22;40693;43.884;20.340;2022-12-31T04:42:40;128.60;2252.80
54796;DHT22;40693;43.884;20.340;2022-12-31T04:45:06;128.60;2252.80
54796;DHT22;40693;43.884;20.340;2022-12-31T04:47:31;128.60;2252.80
54796;DHT22;40693;43.884;20.340;2022-12-31T04:49:57;128.60;2252.80
54796;DHT22;40693;43.884;20.340;2022-12-31T04:52:23;128.60;2252.80
54796;DHT22;40693;43.884;20.340;2022-12-31T04:54:48;128.60;2252.80
54796;DHT22;40693;43.884;20.340;2022-12-31T04:57:14;128.50;2252.80
54796;DHT22;40693;43.884;20.340;2022-12-31T04:59:39;128.50;2252.80
54796;DHT22;40693;43.884;20.340;2022-12-31T05:02:05;128.50;2252.80
54796;DHT22;40693;43.884;20.340;2022-12-31T05:04:30;128.50;2252.80
54796;DHT22;40693;43.884;20.340;2022-12-31T05:06:56;128.50;2252.80
54796;DHT22;40693;43.884;20.340;2022-12-31T05:09:22;128.00;2252.80
54796;DHT22;40693;43.884;20.340;2022-12-31T05:11:51;128.40;2252.80
54796;DHT22;40693;43.884;20.340;2022-12-31T05:14:19;128.30;2252.80
54796;DHT22;40693;43.884;20.340;2022-12-31T05:16:44;128.20;2252.80
54796;DHT22;40693;43.884;20.340;2022-12-31T05:19:10;128.20;2252.80
54796;DHT22;40693;43.884;20.340;2022-12-31T05:21:35;128.20;2252.80
54796;DHT22;40693;43.884;20.340;2022-12-31T05:24:01;128.20;2252.80
54796;DHT22;40693;43.884;20.340;2022-12-31T05:26:27;128.20;2252.80
54796;DHT22;40693;43.884;20.340;2022-12-31T05:28:52;128.20;2252.80
54796;DHT22;40693;43.884;20.340;2022-12-31T05:31:19;128.30;2252.80
54796;DHT22;40693;43.884;20.340;2022-12-31T05:33:45;128.30;2252.80
54796;DHT22;40693;43.884;20.340;2022-12-31T05:36:10;128.20;2252.80
54796;DHT22;40693;43.884;20.340;2022-12-31T05:38:36;128.20;2252.80
54796;DHT22;40693;43.884;20.340;2022-12-31T05:41:03;128.20;2252.80
54796;DHT22;40693;43.884;20.340;2022-12-31T05:43:29;128.20;2252.80
54796;DHT22;40693;43.884;20.340;2022-12-31T05:45:55;128.20;2252.80
54796;DHT22;40693;43.884;20.340;2022-12-31T05:48:20;128.20;2252.80
54796;DHT22;40693;43.884;20.340;2022-12-31T05:50:47;128.20;2252.80
54796;DHT22;40693;43.884;20.340;2022-12-31T05:53:12;128.10;2252.80
54796;DHT22;40693;43.884;20.340;2022-12-31T05:55:38;128.20;2252.80
54796;DHT22;40693;43.884;20.340;2022-12-31T05:58:03;128.20;2252.80
54796;DHT22;40693;43.884;20.340;2022-12-31T06:00:29;128.20;2252.80
54796;DHT22;40693;43.884;20.340;2022-12-31T06:02:54;128.20;2252.80
54796;DHT22;40693;43.884;20.340;2022-12-31T06:05:20;128.20;2252.80
54796;DHT22;40693;43.884;20.340;2022-12-31T06:07:46;128.20;2252.80
54796;DHT22;40693;43.884;20.340;2022-12-31T06:10:11;128.30;2252.80
54796;DHT22;40693;43.884;20.340;2022-12-31T06:12:37;128.30;2252.80
54796;DHT22;40693;43.884;20.340;2022-12-31T06:15:02;128.30;2252.80
54796;DHT22;40693;43.884;20.340;2022-12-31T06:17:28;128.30;2252.80
54796;DHT22;40693;43.884;20.340;2022-12-31T06:19:56;128.30;2252.80
54796;DHT22;40693;43.884;20.340;2022-12-31T06:22:22;128.30;2252.80
54796;DHT22;40693;43.884;20.340;2022-12-31T06:24:48;128.30;2252.80
54796;DHT22;40693;43.884;20.340;2022-12-31T06:27:13;128.20;2252.80
54796;DHT22;40693;43.884;20.340;2022-12-31T06:29:39;128.20;2252.80
54796;DHT22;40693;43.884;20.340;2022-12-31T06:32:05;128.20;2252.80
54796;DHT22;40693;43.884;20.340;2022-12-31T06:34:30;128.20;2252.80
54796;DHT22;40693;43.884;20.340;2022-12-31T06:36:56;128.20;2252.80
54796;DHT22;40693;43.884;20.340;2022-12-31T06:39:22;128.20;2252.80
54796;DHT22;40693;43.884;20.340;2022-12-31T06:41:47;128.20;2252.80
54796;DHT22;40693;43.884;20.340;2022-12-31T06:44:13;128.10;2252.80
54796;DHT22;40693;43.884;20.340;2022-12-31T06:46:39;128.10;2252.80
54796;DHT22;40693;43.884;20.340;2022-12-31T06:49:04;128.20;2252.80
54796;DHT22;40693;43.884;20.340;2022-12-31T06:51:30;128.20;2252.80
54796;DHT22;40693;43.884;20.340;2022-12-31T06:53:55;128.30;2252.80
54796;DHT22;40693;43.884;20.340;2022-12-31T06:56:22;128.30;2252.80
54796;DHT22;40693;43.884;20.340;2022-12-31T06:58:49;128.30;2252.80
54796;DHT22;40693;43.884;20.340;2022-12-31T07:01:36;128.30;2252.80
54796;DHT22;40693;43.884;20.340;2022-12-31T07:06:37;128.40;2252.80
54796;DHT22;40693;43.884;20.340;2022-12-31T07:09:22;128.60;2252.80
54796;DHT22;40693;43.884;20.340;2022-12-31T07:14:48;128.70;2252.80
54796;DHT22;40693;43.884;20.340;2022-12-31T07:22:14;128.90;2252.80
54796;DHT22;40693;43.884;20.340;2022-12-31T07:24:41;128.90;2252.80
54796;DHT22;40693;43.884;20.340;2022-12-31T07:37:10;154.10;2252.80
54796;DHT22;40693;43.884;20.340;2022-12-31T07:39:40;154.20;2252.80
54796;DHT22;40693;43.884;20.340;2022-12-31T07:42:18;154.40;2252.80
54796;DHT22;40693;43.884;20.340;2022-12-31T07:47:21;179.40;2252.80
54796;DHT22;40693;43.884;20.340;2022-12-31T07:49:47;179.60;2252.80
54796;DHT22;40693;43.884;20.340;2022-12-31T07:52:13;179.80;2252.80
54796;DHT22;40693;43.884;20.340;2022-12-31T07:54:38;204.80;2252.80
54796;DHT22;40693;43.884;20.340;2022-12-31T07:57:04;180.00;2252.80
54796;DHT22;40693;43.884;20.340;2022-12-31T08:04:53;205.10;2252.80
54796;DHT22;40693;43.884;20.340;2022-12-31T08:12:31;205.40;2252.80
54796;DHT22;40693;43.884;20.340;2022-12-31T08:14:58;205.70;2252.80
54796;DHT22;40693;43.884;20.340;2022-12-31T08:17:24;205.70;2252.80
54796;DHT22;40693;43.884;20.340;2022-12-31T08:19:49;230.60;2252.80
54796;DHT22;40693;43.884;20.340;2022-12-31T08:22:28;230.80;2252.80
54796;DHT22;40693;43.884;20.340;2022-12-31T08:24:57;230.90;2252.80
54796;DHT22;40693;43.884;20.340;2022-12-31T08:30:00;231.30;2252.80
54796;DHT22;40693;43.884;20.340;2022-12-31T08:32:33;256.00;2252.80
54796;DHT22;40693;43.884;20.340;2022-12-31T08:37:34;256.30;2252.80
54796;DHT22;40693;43.884;20.340;2022-12-31T08:40:05;256.60;2252.80
54796;DHT22;40693;43.884;20.340;2022-12-31T08:42:40;256.90;2252.80
54796;DHT22;40693;43.884;20.340;2022-12-31T08:50:15;282.30;2278.40
54796;DHT22;40693;43.884;20.340;2022-12-31T08:52:41;307.30;2304.00
54796;DHT22;40693;43.884;20.340;2022-12-31T08:55:11;307.80;2304.00
54796;DHT22;40693;43.884;20.340;2022-12-31T09:00:23;333.50;2329.60
54796;DHT22;40693;43.884;20.340;2022-12-31T09:13:20;461.70;1766.40
54796;DHT22;40693;43.884;20.340;2022-12-31T09:15:52;512.20;1638.40
54796;DHT22;40693;43.884;20.340;2022-12-31T09:18:21;538.30;1536.00
54796;DHT22;40693;43.884;20.340;2022-12-31T09:20:48;563.90;1484.80
54796;DHT22;40693;43.884;20.340;2022-12-31T09:23:14;589.20;1408.00
54796;DHT22;40693;43.884;20.340;2022-12-31T09:33:30;640.20;1305.60
54796;DHT22;40693;43.884;20.340;2022-12-31T09:36:05;640.70;1254.40
54796;DHT22;40693;43.884;20.340;2022-12-31T09:43:43;691.60;1177.60
54796;DHT22;40693;43.884;20.340;2022-12-31T09:51:27;742.40;1152.00
54796;DHT22;40693;43.884;20.340;2022-12-31T09:54:07;742.80;1126.40
54796;DHT22;40693;43.884;20.340;2022-12-31T09:56:34;742.60;1126.40
54796;DHT22;40693;43.884;20.340;2022-12-31T10:06:38;768.00;1100.80
54796;DHT22;40693;43.884;20.340;2022-12-31T10:09:12;768.10;1075.20
54796;DHT22;40693;43.884;20.340;2022-12-31T10:27:32;666.40;1152.00
54796;DHT22;40693;43.884;20.340;2022-12-31T10:53:41;486.50;1587.20
54796;DHT22;40693;43.884;20.340;2022-12-31T10:56:22;461.60;1638.40
54796;DHT22;40693;43.884;20.340;2022-12-31T11:27:40;512.00;1638.40
54796;DHT22;40693;43.884;20.340;2022-12-31T11:38:27;537.80;1561.60
54796;DHT22;40693;43.884;20.340;2022-12-31T11:41:06;538.00;1536.00
54796;DHT22;40693;43.884;20.340;2022-12-31T11:46:20;538.20;1536.00
54796;DHT22;40693;43.884;20.340;2022-12-31T11:56:33;563.30;1536.00
54796;DHT22;40693;43.884;20.340;2022-12-31T11:58:59;563.50;1510.40
54796;DHT22;40693;43.884;20.340;2022-12-31T12:01:29;563.60;1510.40
54796;DHT22;40693;43.884;20.340;2022-12-31T12:03:56;563.50;1484.80
54796;DHT22;40693;43.884;20.340;2022-12-31T12:06:26;538.40;1484.80
54796;DHT22;40693;43.884;20.340;2022-12-31T12:08:54;538.30;1484.80
54796;DHT22;40693;43.884;20.340;2022-12-31T12:11:25;538.20;1510.40
54796;DHT22;40693;43.884;20.340;2022-12-31T12:13:51;538.30;1510.40
54796;DHT22;40693;43.884;20.340;2022-12-31T12:16:18;538.30;1484.80
54796;DHT22;40693;43.884;20.340;2022-12-31T12:21:19;538.40;1484.80
54796;DHT22;40693;43.884;20.340;2022-12-31T12:28:52;538.40;1484.80
54796;DHT22;40693;43.884;20.340;2022-12-31T12:31:19;538.50;1459.20
54796;DHT22;40693;43.884;20.340;2022-12-31T12:33:45;538.50;1459.20
54796;DHT22;40693;43.884;20.340;2022-12-31T12:36:12;563.20;1484.80
54796;DHT22;40693;43.884;20.340;2022-12-31T12:38:39;563.30;1510.40
54796;DHT22;40693;43.884;20.340;2022-12-31T12:41:06;563.30;1484.80
54796;DHT22;40693;43.884;20.340;2022-12-31T12:43:35;563.40;1484.80
54796;DHT22;40693;43.884;20.340;2022-12-31T12:46:02;563.50;1484.80
54796;DHT22;40693;43.884;20.340;2022-12-31T12:48:33;563.50;1459.20
54796;DHT22;40693;43.884;20.340;2022-12-31T12:51:05;563.30;1459.20
54796;DHT22;40693;43.884;20.340;2022-12-31T13:18:43;538.00;1510.40
54796;DHT22;40693;43.884;20.340;2022-12-31T13:29:13;538.20;1510.40
54796;DHT22;40693;43.884;20.340;2022-12-31T13:31:41;538.10;1510.40
54796;DHT22;40693;43.884;20.340;2022-12-31T13:34:15;538.20;1510.40
54796;DHT22;40693;43.884;20.340;2022-12-31T13:36:42;538.10;1510.40
54796;DHT22;40693;43.884;20.340;2022-12-31T13:39:15;538.10;1510.40
54796;DHT22;40693;43.884;20.340;2022-12-31T13:41:51;538.10;1484.80
54796;DHT22;40693;43.884;20.340;2022-12-31T13:47:10;538.10;1510.40
54796;DHT22;40693;43.884;20.340;2022-12-31T13:54:52;538.00;1536.00
54796;DHT22;40693;43.884;20.340;2022-12-31T14:00:03;537.90;1536.00
54796;DHT22;40693;43.884;20.340;2022-12-31T14:02:39;537.90;1536.00
54796;DHT22;40693;43.884;20.340;2022-12-31T14:05:14;537.70;1536.00
54796;DHT22;40693;43.884;20.340;2022-12-31T14:07:52;537.70;1536.00
54796;DHT22;40693;43.884;20.340;2022-12-31T14:10:20;537.70;1536.00
54796;DHT22;40693;43.884;20.340;2022-12-31T14:15:33;512.90;1510.40
54796;DHT22;40693;43.884;20.340;2022-12-31T14:18:20;512.80;1510.40
54796;DHT22;40693;43.884;20.340;2022-12-31T14:20:53;512.60;1536.00
54796;DHT22;40693;43.884;20.340;2022-12-31T14:25:48;512.40;1561.60
54796;DHT22;40693;43.884;20.340;2022-12-31T14:28:37;512.30;1587.20
54796;DHT22;40693;43.884;20.340;2022-12-31T14:31:15;512.10;1587.20
54796;DHT22;40693;43.884;20.340;2022-12-31T14:33:50;487.30;1638.40
54796;DHT22;40693;43.884;20.340;2022-12-31T14:55:16;435.80;1792.00
54796;DHT22;40693;43.884;20.340;2022-12-31T14:57:45;435.70;1817.60
54796;DHT22;40693;43.884;20.340;2022-12-31T15:00:20;435.40;1817.60
54796;DHT22;40693;43.884;20.340;2022-12-31T15:02:50;435.30;1843.20
54796;DHT22;40693;43.884;20.340;2022-12-31T15:05:18;410.50;1843.20
54796;DHT22;40693;43.884;20.340;2022-12-31T15:10:16;410.20;1894.40
54796;DHT22;40693;43.884;20.340;2022-12-31T15:12:45;410.10;1894.40
54796;DHT22;40693;43.884;20.340;2022-12-31T15:17:48;409.80;1920.00
54796;DHT22;40693;43.884;20.340;2022-12-31T15:22:50;384.90;1920.00
54796;DHT22;40693;43.884;20.340;2022-12-31T15:25:20;384.60;1945.60
54796;DHT22;40693;43.884;20.340;2022-12-31T15:27:46;384.50;1971.20
54796;DHT22;40693;43.884;20.340;2022-12-31T15:32:56;384.20;1996.80
54796;DHT22;40693;43.884;20.340;2022-12-31T15:38:01;384.10;2022.40
54796;DHT22;40693;43.884;20.340;2022-12-31T15:40:27;359.30;2048.00
54796;DHT22;40693;43.884;20.340;2022-12-31T15:42:56;359.10;2048.00
54796;DHT22;40693;43.884;20.340;2022-12-31T15:45:32;359.00;2073.60
54796;DHT22;40693;43.884;20.340;2022-12-31T15:48:17;358.90;2099.20
54796;DHT22;40693;43.884;20.340;2022-12-31T15:50:43;358.80;2124.80
54796;DHT22;40693;43.884;20.340;2022-12-31T15:53:09;358.80;2150.40
54796;DHT22;40693;43.884;20.340;2022-12-31T15:55:43;358.70;2176.00
54796;DHT22;40693;43.884;20.340;2022-12-31T15:58:14;358.60;2176.00
54796;DHT22;40693;43.884;20.340;2022-12-31T16:00:48;358.50;2201.60
54796;DHT22;40693;43.884;20.340;2022-12-31T16:03:23;358.40;2227.20
54796;DHT22;40693;43.884;20.340;2022-12-31T16:05:50;333.70;2278.40
54796;DHT22;40693;43.884;20.340;2022-12-31T16:08:18;333.60;2329.60
54796;DHT22;40693;43.884;20.340;2022-12-31T16:10:44;333.40;2329.60
54796;DHT22;40693;43.884;20.340;2022-12-31T16:13:16;358.60;2329.60
54796;DHT22;40693;43.884;20.340;2022-12-31T16:15:43;333.30;2329.60
54796;DHT22;40693;43.884;20.340;2022-12-31T16:18:12;333.30;2329.60
54796;DHT22;40693;43.884;20.340;2022-12-31T16:20:40;333.20;2329.60
54796;DHT22;40693;43.884;20.340;2022-12-31T16:23:15;333.00;2329.60
54796;DHT22;40693;43.884;20.340;2022-12-31T16:25:43;332.90;2329.60
54796;DHT22;40693;43.884;20.340;2022-12-31T16:28:13;332.80;2329.60
54796;DHT22;40693;43.884;20.340;2022-12-31T16:30:41;332.80;2329.60
54796;DHT22;40693;43.884;20.340;2022-12-31T16:33:10;308.00;2304.00
54796;DHT22;40693;43.884;20.340;2022-12-31T16:35:37;308.00;2304.00
54796;DHT22;40693;43.884;20.340;2022-12-31T16:38:15;307.90;2304.00
54796;DHT22;40693;43.884;20.340;2022-12-31T16:43:29;307.80;2304.00
54796;DHT22;40693;43.884;20.340;2022-12-31T16:46:05;307.70;2304.00
54796;DHT22;40693;43.884;20.340;2022-12-31T16:48:31;307.70;2304.00
54796;DHT22;40693;43.884;20.340;2022-12-31T16:50:59;307.60;2304.00
54796;DHT22;40693;43.884;20.340;2022-12-31T16:53:26;307.60;2304.00
54796;DHT22;40693;43.884;20.340;2022-12-31T16:55:56;307.60;2304.00
54796;DHT22;40693;43.884;20.340;2022-12-31T16:58:32;307.40;2304.00
54796;DHT22;40693;43.884;20.340;2022-12-31T17:00:59;307.30;2304.00
54796;DHT22;40693;43.884;20.340;2022-12-31T17:03:27;307.30;2304.00
54796;DHT22;40693;43.884;20.340;2022-12-31T17:08:21;307.20;2304.00
54796;DHT22;40693;43.884;20.340;2022-12-31T17:10:48;307.20;2304.00
54796;DHT22;40693;43.884;20.340;2022-12-31T17:13:20;282.50;2278.40
54796;DHT22;40693;43.884;20.340;2022-12-31T17:15:46;282.50;2278.40
54796;DHT22;40693;43.884;20.340;2022-12-31T17:18:15;282.30;2278.40
54796;DHT22;40693;43.884;20.340;2022-12-31T17:20:42;282.20;2278.40
54796;DHT22;40693;43.884;20.340;2022-12-31T17:23:08;282.40;2278.40
54796;DHT22;40693;43.884;20.340;2022-12-31T17:25:35;282.30;2278.40
54796;DHT22;40693;43.884;20.340;2022-12-31T17:28:02;282.30;2278.40
54796;DHT22;40693;43.884;20.340;2022-12-31T17:35:27;282.20;2278.40
54796;DHT22;40693;43.884;20.340;2022-12-31T17:37:56;282.10;2278.40
54796;DHT22;40693;43.884;20.340;2022-12-31T17:40:39;282.00;2278.40
54796;DHT22;40693;43.884;20.340;2022-12-31T17:43:05;282.00;2278.40
54796;DHT22;40693;43.884;20.340;2022-12-31T17:45:34;281.90;2278.40
54796;DHT22;40693;43.884;20.340;2022-12-31T17:48:00;281.70;2278.40
54796;DHT22;40693;43.884;20.340;2022-12-31T17:50:26;281.80;2278.40
54796;DHT22;40693;43.884;20.340;2022-12-31T17:52:59;256.50;2252.80
54796;DHT22;40693;43.884;20.340;2022-12-31T17:55:29;256.60;2252.80
54796;DHT22;40693;43.884;20.340;2022-12-31T17:57:55;256.60;2252.80
54796;DHT22;40693;43.884;20.340;2022-12-31T18:00:23;256.60;2252.80
54796;DHT22;40693;43.884;20.340;2022-12-31T18:02:48;256.60;2252.80
54796;DHT22;40693;43.884;20.340;2022-12-31T18:05:17;256.60;2252.80
54796;DHT22;40693;43.884;20.340;2022-12-31T18:07:43;256.60;2252.80
54796;DHT22;40693;43.884;20.340;2022-12-31T18:10:10;256.60;2252.80
54796;DHT22;40693;43.884;20.340;2022-12-31T18:12:36;256.50;2252.80
54796;DHT22;40693;43.884;20.340;2022-12-31T18:15:01;256.50;2252.80
54796;DHT22;40693;43.884;20.340;2022-12-31T18:17:27;256.40;2252.80
54796;DHT22;40693;43.884;20.340;2022-12-31T18:19:53;256.40;2252.80
54796;DHT22;40693;43.884;20.340;2022-12-31T18:22:19;256.60;2252.80
54796;DHT22;40693;43.884;20.340;2022-12-31T18:24:45;256.40;2252.80
54796;DHT22;40693;43.884;20.340;2022-12-31T18:27:13;256.30;2252.80
54796;DHT22;40693;43.884;20.340;2022-12-31T18:29:39;256.30;2252.80
54796;DHT22;40693;43.884;20.340;2022-12-31T18:32:17;256.20;2252.80
54796;DHT22;40693;43.884;20.340;2022-12-31T18:34:43;256.20;2252.80
54796;DHT22;40693;43.884;20.340;2022-12-31T18:37:10;256.10;2252.80
54796;DHT22;40693;43.884;20.340;2022-12-31T18:39:36;231.30;2252.80
54796;DHT22;40693;43.884;20.340;2022-12-31T18:42:02;231.30;2252.80
54796;DHT22;40693;43.884;20.340;2022-12-31T18:44:28;231.30;2252.80
54796;DHT22;40693;43.884;20.340;2022-12-31T18:46:53;231.20;2252.80
54796;DHT22;40693;43.884;20.340;2022-12-31T18:49:19;231.30;2252.80
54796;DHT22;40693;43.884;20.340;2022-12-31T18:51:45;231.30;2252.80
54796;DHT22;40693;43.884;20.340;2022-12-31T18:54:10;231.30;2252.80
54796;DHT22;40693;43.884;20.340;2022-12-31T18:56:36;231.10;2252.80
54796;DHT22;40693;43.884;20.340;2022-12-31T18:59:02;256.00;2252.80
54796;DHT22;40693;43.884;20.340;2022-12-31T19:01:29;256.00;2252.80
54796;DHT22;40693;43.884;20.340;2022-12-31T19:03:56;256.00;2252.80
54796;DHT22;40693;43.884;20.340;2022-12-31T19:06:23;231.30;2252.80
54796;DHT22;40693;43.884;20.340;2022-12-31T19:08:48;231.30;2252.80
54796;DHT22;40693;43.884;20.340;2022-12-31T19:11:14;231.30;2252.80
54796;DHT22;40693;43.884;20.340;2022-12-31T19:13:40;256.30;2252.80
54796;DHT22;40693;43.884;20.340;2022-12-31T19:16:07;231.20;2252.80
54796;DHT22;40693;43.884;20.340;2022-12-31T19:18:32;231.20;2252.80
54796;DHT22;40693;43.884;20.340;2022-12-31T19:20:58;231.20;2252.80
54796;DHT22;40693;43.884;20.340;2022-12-31T19:23:24;231.20;2252.80
54796;DHT22;40693;43.884;20.340;2022-12-31T19:25:49;231.20;2252.80
54796;DHT22;40693;43.884;20.340;2022-12-31T19:28:17;231.10;2252.80
54796;DHT22;40693;43.884;20.340;2022-12-31T19:30:43;231.10;2252.80
54796;DHT22;40693;43.884;20.340;2022-12-31T19:33:09;231.00;2252.80